Time;durP1;ratioP1;P1;durP2;ratioP2;P2;SDS_P1;SDS_P2;PMS_P1;PMS_P2;Temp;Humidity;BMP_temperature;BMP_pressure;BME280_temperature;BME280_humidity;BME280_pressure;Samples;Min_cycle;Max_cycle;Signal;HPM_P1;HPM_P2
2023/10/04 00:00:59;;;;;;;5.47;2.90;;;9.40;99.90;;;;;;2077498;28;20224;-70
2023/10/04 00:02:00;;;;;;;4.53;3.17;;;9.30;99.90;;;;;;2078406;28;20278;-70
2023/10/04 00:03:00;;;;;;;6.07;3.23;;;9.30;99.90;;;;;;2066751;28;20339;-71
2023/10/04 00:04:02;;;;;;;3.77;2.73;;;9.30;99.90;;;;;;2078193;28;20275;-72
2023/10/04 00:05:04;;;;;;;7.35;3.90;;;9.20;99.90;;;;;;2079362;28;20196;-70
2023/10/04 00:06:04;;;;;;;4.82;3.03;;;9.10;99.90;;;;;;2076000;28;20196;-70
2023/10/04 00:07:06;;;;;;;4.20;3.23;;;9.10;99.90;;;;;;2079245;28;20272;-70
2023/10/04 00:08:08;;;;;;;5.40;3.13;;;9.10;99.90;;;;;;2078135;28;20184;-70
2023/10/04 00:09:09;;;;;;;6.15;3.30;;;9.10;99.90;;;;;;2078507;28;20196;-69
2023/10/04 00:10:11;;;;;;;3.70;3.08;;;9.10;99.90;;;;;;2070406;28;20946;-70
2023/10/04 00:11:15;;;;;;;6.90;3.17;;;9.00;99.90;;;;;;2055433;28;20204;-70
2023/10/04 00:12:16;;;;;;;6.07;3.65;;;8.90;99.90;;;;;;2078513;28;20299;-70
2023/10/04 00:13:16;;;;;;;3.67;2.70;;;9.00;99.90;;;;;;2078697;28;20221;-70
2023/10/04 00:14:17;;;;;;;4.63;2.97;;;9.00;99.90;;;;;;2078616;28;20682;-70
2023/10/04 00:15:20;;;;;;;4.23;3.30;;;9.10;99.90;;;;;;2079321;28;20189;-70
2023/10/04 00:16:22;;;;;;;8.13;3.15;;;9.10;99.90;;;;;;2078192;28;20323;-70
2023/10/04 00:17:23;;;;;;;5.70;3.45;;;9.10;99.90;;;;;;2069546;28;20242;-70
2023/10/04 00:18:23;;;;;;;27.80;4.13;;;9.10;99.90;;;;;;2065000;28;20833;-71
2023/10/04 00:19:24;;;;;;;35.10;5.00;;;9.00;99.90;;;;;;2070871;28;20236;-71
2023/10/04 00:20:31;;;;;;;44.37;5.83;;;9.00;99.90;;;;;;2070634;28;20356;-71
2023/10/04 00:21:33;;;;;;;54.35;7.95;;;8.90;99.90;;;;;;2078618;28;20220;-70
2023/10/04 00:22:36;;;;;;;82.47;8.85;;;8.80;99.90;;;;;;2080265;28;20740;-70
2023/10/04 00:23:38;;;;;;;30.25;6.38;;;8.70;99.90;;;;;;2080352;28;20221;-70
2023/10/04 00:24:39;;;;;;;19.38;4.03;;;8.70;99.90;;;;;;2080091;28;20262;-70
2023/10/04 00:25:40;;;;;;;32.87;5.83;;;8.80;99.90;;;;;;2071895;28;20221;-71
2023/10/04 00:26:45;;;;;;;67.95;6.25;;;8.80;99.90;;;;;;2071992;28;20236;-70
2023/10/04 00:27:50;;;;;;;55.22;5.55;;;8.90;99.90;;;;;;2079984;28;20223;-70
2023/10/04 00:28:50;;;;;;;20.83;4.43;;;8.90;99.90;;;;;;2072353;28;20225;-70
2023/10/04 00:29:51;;;;;;;27.70;4.73;;;8.90;99.90;;;;;;2076161;28;20225;-70
2023/10/04 00:30:52;;;;;;;19.83;5.47;;;9.00;99.90;;;;;;2080770;28;20227;-70
2023/10/04 00:31:52;;;;;;;26.33;5.77;;;9.00;99.90;;;;;;2071798;28;20232;-70
2023/10/04 00:32:54;;;;;;;17.07;5.93;;;9.00;99.90;;;;;;2071672;28;20824;-70
2023/10/04 00:33:55;;;;;;;24.88;5.03;;;9.10;99.90;;;;;;2079645;28;20239;-70
2023/10/04 00:34:56;;;;;;;12.40;5.10;;;9.10;99.90;;;;;;2072000;28;20225;-70
2023/10/04 00:36:01;;;;;;;31.63;5.90;;;9.10;99.90;;;;;;2080035;28;20628;-70
2023/10/04 00:37:02;;;;;;;16.48;5.88;;;9.10;99.90;;;;;;2079028;28;20465;-71
2023/10/04 00:38:03;;;;;;;6.23;4.33;;;9.20;99.90;;;;;;2071777;28;20612;-70
2023/10/04 00:39:06;;;;;;;12.83;4.90;;;9.20;99.90;;;;;;2071851;28;20205;-70
2023/10/04 00:40:18;;;;;;;4.75;3.72;;;9.20;99.90;;;;;;2072127;28;20181;-71
2023/10/04 00:41:20;;;;;;;4.30;3.38;;;9.10;99.90;;;;;;2071170;28;20187;-70
2023/10/04 00:42:21;;;;;;;3.50;3.20;;;9.00;99.90;;;;;;2079482;28;20240;-70
2023/10/04 00:43:22;;;;;;;5.60;3.50;;;8.90;99.90;;;;;;2078501;28;20224;-70
2023/10/04 00:44:23;;;;;;;5.28;3.53;;;8.90;99.90;;;;;;2072061;28;20236;-71
2023/10/04 00:45:27;;;;;;;5.23;3.87;;;8.80;99.90;;;;;;2071937;28;20251;-71
2023/10/04 00:46:29;;;;;;;4.57;3.17;;;8.90;99.90;;;;;;2073158;28;20234;-70
2023/10/04 00:47:31;;;;;;;5.35;4.13;;;9.00;99.90;;;;;;2071913;28;20699;-70
2023/10/04 00:48:34;;;;;;;4.75;3.25;;;9.00;99.90;;;;;;2072176;28;20278;-70
2023/10/04 00:49:35;;;;;;;4.32;3.10;;;9.00;99.90;;;;;;2073013;28;20221;-70
2023/10/04 00:50:36;;;;;;;3.80;3.00;;;9.00;99.90;;;;;;2071822;28;20257;-70
2023/10/04 00:51:38;;;;;;;4.45;3.58;;;8.90;99.90;;;;;;2071838;28;20756;-70
2023/10/04 00:52:39;;;;;;;4.70;3.97;;;8.90;99.90;;;;;;2071805;28;20259;-70
2023/10/04 00:53:42;;;;;;;5.97;4.23;;;8.80;99.90;;;;;;2071495;28;20702;-70
2023/10/04 00:54:43;;;;;;;6.53;4.25;;;8.80;99.90;;;;;;2076601;28;20270;-70
2023/10/04 00:55:45;;;;;;;6.90;5.00;;;8.80;99.90;;;;;;2079935;28;20698;-69
2023/10/04 00:56:46;;;;;;;7.32;5.38;;;8.80;99.90;;;;;;2079736;28;20278;-69
2023/10/04 00:57:54;;;;;;;5.43;4.35;;;8.80;99.90;;;;;;2071589;28;20837;-70
2023/10/04 00:58:58;;;;;;;6.68;4.30;;;8.90;99.90;;;;;;2071837;28;20248;-69
2023/10/04 00:59:59;;;;;;;8.82;4.68;;;9.00;99.90;;;;;;2064910;28;20241;-69
2023/10/04 01:01:00;;;;;;;4.10;3.13;;;9.00;99.90;;;;;;2071601;28;20721;-71
2023/10/04 01:02:01;;;;;;;4.22;2.88;;;9.00;99.90;;;;;;2071479;28;20228;-70
2023/10/04 01:03:02;;;;;;;3.90;3.03;;;8.90;99.90;;;;;;2071635;28;20209;-70
2023/10/04 01:04:05;;;;;;;3.40;2.97;;;8.90;99.90;;;;;;2080136;28;20243;-70
2023/10/04 01:05:07;;;;;;;3.00;2.70;;;8.90;99.90;;;;;;2071019;28;20190;-70
2023/10/04 01:06:09;;;;;;;3.50;2.90;;;8.90;99.90;;;;;;2079318;28;20208;-70
2023/10/04 01:07:09;;;;;;;5.47;2.83;;;8.90;99.90;;;;;;2078093;28;20661;-70
2023/10/04 01:08:13;;;;;;;4.30;3.10;;;8.80;99.90;;;;;;2067588;28;20185;-70
2023/10/04 01:09:14;;;;;;;4.03;2.92;;;8.80;99.90;;;;;;2078929;28;20282;-69
2023/10/04 01:10:20;;;;;;;4.10;3.20;;;8.70;99.90;;;;;;2072157;28;20228;-69
2023/10/04 01:11:22;;;;;;;4.60;3.40;;;8.70;99.90;;;;;;2074482;28;20245;-69
2023/10/04 01:12:23;;;;;;;6.18;3.80;;;8.80;99.90;;;;;;2070740;28;20250;-71
2023/10/04 01:13:26;;;;;;;7.65;3.60;;;8.80;99.90;;;;;;2067831;28;20236;-70
2023/10/04 01:14:32;;;;;;;5.20;3.03;;;8.80;99.90;;;;;;2077393;28;20782;-70
2023/10/04 01:15:36;;;;;;;5.82;3.70;;;8.90;99.90;;;;;;2071099;28;20599;-70
2023/10/04 01:16:41;;;;;;;4.22;3.70;;;8.90;99.90;;;;;;2072582;28;20229;-70
2023/10/04 01:17:42;;;;;;;5.40;3.55;;;8.80;99.90;;;;;;2070732;28;20270;-69
2023/10/04 01:18:44;;;;;;;4.00;3.42;;;8.70;99.90;;;;;;2071516;28;20225;-69
2023/10/04 01:19:45;;;;;;;5.88;3.97;;;8.70;99.90;;;;;;2079077;28;20219;-69
2023/10/04 01:20:46;;;;;;;3.78;3.10;;;8.70;99.90;;;;;;2077431;28;20239;-69
2023/10/04 01:21:47;;;;;;;3.53;2.97;;;8.70;99.90;;;;;;2069025;28;20249;-69
2023/10/04 01:22:48;;;;;;;3.97;3.10;;;8.70;99.90;;;;;;2078483;28;20224;-69
2023/10/04 01:23:49;;;;;;;4.45;3.28;;;8.60;99.90;;;;;;2070722;28;20226;-69
2023/10/04 01:24:53;;;;;;;3.72;2.90;;;8.50;99.90;;;;;;2063255;28;20392;-70
2023/10/04 01:25:54;;;;;;;4.38;2.85;;;8.50;99.90;;;;;;2079354;28;20234;-69
2023/10/04 01:26:56;;;;;;;7.10;3.17;;;8.50;99.90;;;;;;2080137;28;20310;-70
2023/10/04 01:28:00;;;;;;;12.55;3.70;;;8.60;99.90;;;;;;2079187;28;20245;-70
2023/10/04 01:29:04;;;;;;;3.67;3.00;;;8.50;99.90;;;;;;2070775;28;20247;-71
2023/10/04 01:30:09;;;;;;;3.00;2.70;;;8.50;99.90;;;;;;2078788;28;20202;-71
2023/10/04 01:31:10;;;;;;;4.13;3.33;;;8.50;99.90;;;;;;2071687;28;20752;-70
2023/10/04 01:32:10;;;;;;;8.20;3.50;;;8.50;99.90;;;;;;2070729;28;20249;-70
2023/10/04 01:33:15;;;;;;;10.13;3.57;;;8.50;99.90;;;;;;2067398;28;20402;-71
2023/10/04 01:34:17;;;;;;;6.28;3.30;;;8.60;99.90;;;;;;2068907;28;20710;-70
2023/10/04 01:35:27;;;;;;;4.72;3.30;;;8.60;99.90;;;;;;2069111;28;20685;-70
2023/10/04 01:36:28;;;;;;;4.47;3.00;;;8.60;99.90;;;;;;2079222;28;20225;-70
2023/10/04 01:37:32;;;;;;;3.60;2.77;;;8.60;99.90;;;;;;2079700;28;20228;-70
2023/10/04 01:38:33;;;;;;;3.35;2.72;;;8.60;99.90;;;;;;2070263;28;20282;-70
2023/10/04 01:39:33;;;;;;;3.97;3.17;;;8.50;99.90;;;;;;2079157;28;20314;-70
2023/10/04 01:40:39;;;;;;;5.43;3.53;;;8.40;99.90;;;;;;2068190;28;20474;-69
2023/10/04 01:41:40;;;;;;;4.88;3.20;;;8.30;99.90;;;;;;2078513;28;20302;-69
2023/10/04 01:42:41;;;;;;;5.22;3.70;;;8.30;99.90;;;;;;2078384;28;20232;-69
2023/10/04 01:43:42;;;;;;;4.60;3.08;;;8.30;99.90;;;;;;2076445;28;20726;-69
2023/10/04 01:44:43;;;;;;;5.47;3.40;;;8.40;99.90;;;;;;2071261;28;20359;-70
2023/10/04 01:45:50;;;;;;;5.23;3.50;;;8.50;99.90;;;;;;2070460;28;20699;-69
2023/10/04 01:46:51;;;;;;;6.57;3.72;;;8.60;99.90;;;;;;2072468;28;20631;-69
2023/10/04 01:47:51;;;;;;;4.33;3.43;;;8.60;99.90;;;;;;2079525;28;20228;-69
2023/10/04 01:48:54;;;;;;;4.90;3.47;;;8.60;99.90;;;;;;2078102;28;20306;-70
2023/10/04 01:49:55;;;;;;;4.55;3.00;;;8.60;99.90;;;;;;2071058;28;20968;-69
2023/10/04 01:50:56;;;;;;;5.07;3.20;;;8.60;99.90;;;;;;2079556;28;20226;-69
2023/10/04 01:51:57;;;;;;;3.27;2.70;;;8.50;99.90;;;;;;2079373;28;20704;-70
2023/10/04 01:52:58;;;;;;;4.13;3.10;;;8.50;99.90;;;;;;2070899;28;20226;-70
2023/10/04 01:54:00;;;;;;;2.90;2.50;;;8.50;99.90;;;;;;2070512;28;20746;-69
2023/10/04 01:55:01;;;;;;;4.97;3.13;;;8.50;99.90;;;;;;2078280;28;20227;-69
2023/10/04 01:56:03;;;;;;;3.28;2.97;;;8.50;99.90;;;;;;2077710;28;20305;-70
2023/10/04 01:57:04;;;;;;;4.32;3.53;;;8.50;99.90;;;;;;2078137;28;20175;-70
2023/10/04 01:58:06;;;;;;;3.97;3.33;;;8.40;99.90;;;;;;2075386;28;20594;-69
2023/10/04 01:59:07;;;;;;;3.75;3.00;;;8.40;99.90;;;;;;2079012;28;20287;-70
2023/10/04 02:00:16;;;;;;;4.07;3.23;;;8.30;99.90;;;;;;2062604;28;20248;-69
2023/10/04 02:01:17;;;;;;;6.93;3.67;;;8.20;99.90;;;;;;2065012;28;20217;-69
2023/10/04 02:02:17;;;;;;;5.83;3.00;;;8.20;99.90;;;;;;2071794;28;20180;-70
2023/10/04 02:03:18;;;;;;;3.83;3.23;;;8.20;99.90;;;;;;2078365;28;20188;-69
2023/10/04 02:04:19;;;;;;;5.05;3.08;;;8.20;99.90;;;;;;2078463;28;20243;-69
2023/10/04 02:05:26;;;;;;;3.50;3.20;;;8.30;99.90;;;;;;2069401;28;20251;-69
2023/10/04 02:06:28;;;;;;;3.25;2.95;;;8.20;99.90;;;;;;2064077;28;20225;-69
2023/10/04 02:07:29;;;;;;;4.88;3.33;;;8.20;99.90;;;;;;2078876;28;20232;-69
2023/10/04 02:08:32;;;;;;;4.10;3.50;;;8.20;99.90;;;;;;2078775;28;20347;-69
2023/10/04 02:09:33;;;;;;;3.53;3.05;;;8.20;99.90;;;;;;2070589;28;20664;-69
2023/10/04 02:10:35;;;;;;;5.88;3.72;;;8.30;99.90;;;;;;2079286;28;20240;-69
2023/10/04 02:11:36;;;;;;;5.18;3.65;;;8.30;99.90;;;;;;2079049;28;20229;-69
2023/10/04 02:12:37;;;;;;;4.20;3.80;;;8.30;99.90;;;;;;2078998;28;20233;-69
2023/10/04 02:13:40;;;;;;;4.30;3.50;;;8.50;99.90;;;;;;2077788;28;20638;-69
2023/10/04 02:14:40;;;;;;;4.20;3.42;;;8.60;99.90;;;;;;2078991;28;20240;-70
2023/10/04 02:15:47;;;;;;;4.13;3.47;;;8.60;99.90;;;;;;2067804;28;20222;-69
2023/10/04 02:16:49;;;;;;;5.43;3.58;;;8.70;99.90;;;;;;2071309;28;20225;-69
2023/10/04 02:17:53;;;;;;;4.22;3.40;;;8.70;99.90;;;;;;2070142;28;20223;-69
2023/10/04 02:18:53;;;;;;;3.97;3.58;;;8.70;99.90;;;;;;2063624;28;20230;-69
2023/10/04 02:19:54;;;;;;;4.63;3.90;;;8.70;99.90;;;;;;2079442;28;20259;-69
2023/10/04 02:20:55;;;;;;;5.07;4.00;;;8.70;99.90;;;;;;2078766;28;20236;-69
2023/10/04 02:21:56;;;;;;;6.03;3.40;;;8.60;99.90;;;;;;2071057;28;20304;-69
2023/10/04 02:22:57;;;;;;;4.87;3.33;;;8.70;99.90;;;;;;2067203;28;20228;-69
2023/10/04 02:23:58;;;;;;;5.05;3.88;;;8.70;99.90;;;;;;2070809;28;20235;-69
2023/10/04 02:24:59;;;;;;;5.63;3.47;;;8.70;99.90;;;;;;2078025;28;20227;-69
2023/10/04 02:26:00;;;;;;;5.83;3.83;;;8.80;99.90;;;;;;2078538;28;20315;-69
2023/10/04 02:27:06;;;;;;;5.70;3.37;;;8.80;99.90;;;;;;2078790;28;20375;-70
2023/10/04 02:28:30;;;;;;;5.40;3.70;;;8.80;99.90;;;;;;2079192;28;20195;-70
2023/10/04 02:29:28;;;;;;;5.57;3.53;;;8.90;99.90;;;;;;2079111;28;20233;-69
2023/10/04 02:30:29;;;;;;;5.57;3.73;;;8.90;99.90;;;;;;2078306;28;20724;-69
2023/10/04 02:31:30;;;;;;;4.93;3.27;;;9.00;99.90;;;;;;2077142;28;20279;-69
2023/10/04 02:32:31;;;;;;;6.43;3.33;;;8.90;99.90;;;;;;2078868;28;20284;-69
2023/10/04 02:33:38;;;;;;;6.53;4.27;;;9.00;99.90;;;;;;2076570;28;20266;-69
2023/10/04 02:34:41;;;;;;;4.80;3.58;;;9.00;99.90;;;;;;2074752;28;20314;-69
2023/10/04 02:35:47;;;;;;;4.25;3.55;;;8.90;99.90;;;;;;2075269;28;20224;-69
2023/10/04 02:36:48;;;;;;;7.63;3.88;;;8.90;99.90;;;;;;2076244;28;20767;-69
2023/10/04 02:37:54;;;;;;;4.88;3.15;;;8.90;99.90;;;;;;2074931;28;20695;-69
2023/10/04 02:38:55;;;;;;;4.15;3.15;;;8.90;99.90;;;;;;2075069;28;20285;-69
2023/10/04 02:39:57;;;;;;;4.82;3.50;;;8.90;99.90;;;;;;2073553;28;20646;-69
2023/10/04 02:41:00;;;;;;;5.70;3.60;;;9.00;99.90;;;;;;2073855;28;20232;-69
2023/10/04 02:42:03;;;;;;;5.93;3.63;;;9.00;99.90;;;;;;2072473;28;20217;-70
2023/10/04 02:43:07;;;;;;;4.40;3.55;;;9.00;99.90;;;;;;2072246;28;20214;-69
2023/10/04 02:44:08;;;;;;;7.00;3.58;;;9.10;99.90;;;;;;2075260;28;20684;-70
2023/10/04 02:45:12;;;;;;;4.78;3.40;;;9.10;99.90;;;;;;2078807;28;20187;-69
2023/10/04 02:46:13;;;;;;;5.15;3.47;;;9.20;99.90;;;;;;2078568;28;20185;-69
2023/10/04 02:47:14;;;;;;;3.73;3.10;;;9.20;99.90;;;;;;2077961;28;20193;-69
2023/10/04 02:48:15;;;;;;;3.37;2.97;;;9.20;99.90;;;;;;2078544;28;20216;-69
2023/10/04 02:49:15;;;;;;;3.83;2.97;;;9.20;99.90;;;;;;2074410;28;20196;-69
2023/10/04 02:50:17;;;;;;;3.83;3.10;;;9.20;99.90;;;;;;2069672;28;20192;-69
2023/10/04 02:51:18;;;;;;;3.15;2.88;;;9.00;99.90;;;;;;2068651;28;20202;-69
2023/10/04 02:52:19;;;;;;;5.23;3.20;;;8.90;99.90;;;;;;2069848;28;20745;-69
2023/10/04 02:53:24;;;;;;;4.60;3.22;;;9.00;99.90;;;;;;2070215;28;22757;-69
2023/10/04 02:54:31;;;;;;;4.82;3.08;;;9.00;99.90;;;;;;2068327;28;20247;-70
2023/10/04 02:55:32;;;;;;;4.25;3.25;;;9.10;99.90;;;;;;2069310;28;20596;-69
2023/10/04 02:56:41;;;;;;;3.27;2.70;;;9.00;99.90;;;;;;2069050;28;20250;-69
2023/10/04 02:57:49;;;;;;;5.10;3.13;;;9.00;99.90;;;;;;2076829;28;20239;-69
2023/10/04 02:58:50;;;;;;;4.70;2.83;;;9.10;99.90;;;;;;2076423;28;20228;-69
2023/10/04 02:59:50;;;;;;;4.80;3.30;;;9.10;99.90;;;;;;2078815;28;20730;-69
2023/10/04 03:00:51;;;;;;;4.47;3.30;;;9.00;99.90;;;;;;2078718;28;20232;-69
2023/10/04 03:01:52;;;;;;;4.27;2.67;;;9.00;99.90;;;;;;2079041;28;20238;-69
2023/10/04 03:02:53;;;;;;;3.75;2.95;;;9.00;99.90;;;;;;2079685;28;20254;-69
2023/10/04 03:03:55;;;;;;;3.97;3.10;;;9.10;99.90;;;;;;2068583;28;20225;-69
2023/10/04 03:04:56;;;;;;;3.38;3.00;;;9.10;99.90;;;;;;2061709;28;20325;-69
2023/10/04 03:05:57;;;;;;;4.15;3.20;;;9.10;99.90;;;;;;2070042;28;20632;-69
2023/10/04 03:06:58;;;;;;;4.18;2.78;;;9.20;99.90;;;;;;2078458;28;20689;-69
2023/10/04 03:08:06;;;;;;;3.20;2.63;;;9.20;99.90;;;;;;2078103;28;20355;-69
2023/10/04 03:09:07;;;;;;;4.85;2.45;;;9.20;99.90;;;;;;2069769;28;20615;-70
2023/10/04 03:10:11;;;;;;;4.15;2.67;;;9.20;99.90;;;;;;2070981;28;20178;-70
2023/10/04 03:11:12;;;;;;;7.85;2.90;;;9.10;99.90;;;;;;2070731;28;20189;-69
2023/10/04 03:12:12;;;;;;;4.10;2.93;;;9.10;99.90;;;;;;2076264;28;20186;-69
2023/10/04 03:13:16;;;;;;;3.57;2.70;;;9.10;99.90;;;;;;2075797;28;20238;-70
2023/10/04 03:14:16;;;;;;;4.10;2.47;;;9.20;99.90;;;;;;2078636;28;20220;-70
2023/10/04 03:15:21;;;;;;;3.93;2.80;;;9.20;99.90;;;;;;2078171;28;20627;-70
2023/10/04 03:16:22;;;;;;;4.30;2.83;;;9.20;99.90;;;;;;2070580;28;20240;-70
2023/10/04 03:17:22;;;;;;;6.47;3.23;;;9.20;99.90;;;;;;2062461;28;20323;-70
2023/10/04 03:18:25;;;;;;;3.20;2.60;;;9.10;99.90;;;;;;2062417;28;20817;-71
2023/10/04 03:19:25;;;;;;;2.60;2.30;;;9.10;99.90;;;;;;2068066;28;20428;-70
2023/10/04 03:20:29;;;;;;;3.70;2.83;;;9.10;99.90;;;;;;2069789;28;20232;-71
2023/10/04 03:21:31;;;;;;;2.88;2.55;;;9.00;99.90;;;;;;2077055;28;20235;-70
2023/10/04 03:22:33;;;;;;;2.80;2.20;;;9.00;99.90;;;;;;2077895;28;20631;-70
2023/10/04 03:23:35;;;;;;;5.90;3.00;;;9.00;99.90;;;;;;2070237;28;20290;-70
2023/10/04 03:24:36;;;;;;;4.00;2.50;;;9.00;99.90;;;;;;2077912;28;20232;-70
2023/10/04 03:25:37;;;;;;;2.97;2.50;;;8.90;99.90;;;;;;2063060;28;20241;-70
2023/10/04 03:26:38;;;;;;;4.23;2.87;;;8.70;99.90;;;;;;2061685;28;20234;-70
2023/10/04 03:27:43;;;;;;;3.67;2.83;;;8.70;99.90;;;;;;2070554;28;20229;-70
2023/10/04 03:28:44;;;;;;;4.28;2.63;;;8.80;99.90;;;;;;2078551;28;20625;-70
2023/10/04 03:29:45;;;;;;;4.07;3.13;;;8.80;99.90;;;;;;2078944;28;21015;-70
2023/10/04 03:30:45;;;;;;;2.90;2.50;;;8.90;99.90;;;;;;2078672;28;20313;-70
2023/10/04 03:31:48;;;;;;;4.47;2.60;;;8.90;99.90;;;;;;2079567;28;20227;-70
2023/10/04 03:32:52;;;;;;;3.28;2.42;;;8.90;99.90;;;;;;2071913;28;20233;-70
2023/10/04 03:33:53;;;;;;;2.70;2.10;;;8.90;99.90;;;;;;2064125;28;20229;-70
2023/10/04 03:34:54;;;;;;;4.22;2.50;;;9.00;99.90;;;;;;2054280;28;20238;-70
2023/10/04 03:35:58;;;;;;;2.60;2.33;;;8.90;99.90;;;;;;2053627;28;20258;-70
2023/10/04 03:37:08;;;;;;;3.35;2.33;;;8.90;99.90;;;;;;2070885;28;20320;-70
2023/10/04 03:38:09;;;;;;;2.63;2.40;;;8.90;99.90;;;;;;2075326;28;20219;-71
2023/10/04 03:39:10;;;;;;;5.05;2.15;;;8.90;99.90;;;;;;2078977;28;20243;-70
2023/10/04 03:40:14;;;;;;;3.43;2.60;;;8.80;99.90;;;;;;2062799;28;20179;-70
2023/10/04 03:41:16;;;;;;;3.50;2.70;;;8.70;99.90;;;;;;2064466;28;20335;-70
2023/10/04 03:42:17;;;;;;;2.92;2.20;;;8.70;99.90;;;;;;2070968;28;20539;-70
2023/10/04 03:43:17;;;;;;;4.67;2.60;;;8.70;99.90;;;;;;2069472;28;20197;-70
2023/10/04 03:44:18;;;;;;;3.30;2.40;;;8.70;99.90;;;;;;2074852;28;20197;-70
2023/10/04 03:45:20;;;;;;;4.50;2.83;;;8.70;99.90;;;;;;2073897;28;20208;-70
2023/10/04 03:46:21;;;;;;;3.05;2.20;;;8.60;99.90;;;;;;2079175;28;20233;-70
2023/10/04 03:47:22;;;;;;;3.93;2.90;;;8.70;99.90;;;;;;2078951;28;20301;-70
2023/10/04 03:48:23;;;;;;;3.50;2.47;;;8.60;99.90;;;;;;2070981;28;20229;-70
2023/10/04 03:49:26;;;;;;;4.40;3.13;;;8.60;99.90;;;;;;2070832;28;20925;-70
2023/10/04 03:50:28;;;;;;;3.35;2.97;;;8.60;99.90;;;;;;2077986;28;20628;-71
2023/10/04 03:51:29;;;;;;;7.22;3.42;;;8.60;99.90;;;;;;2077557;28;20360;-69
2023/10/04 03:52:31;;;;;;;3.28;2.97;;;8.60;99.90;;;;;;2078626;28;20231;-69
2023/10/04 03:53:32;;;;;;;4.15;3.03;;;8.50;99.90;;;;;;2078526;28;20229;-69
2023/10/04 03:54:33;;;;;;;4.57;2.67;;;8.60;99.90;;;;;;2078843;28;20234;-69
2023/10/04 03:55:33;;;;;;;3.25;2.60;;;8.70;99.90;;;;;;2078897;28;20249;-69
2023/10/04 03:56:34;;;;;;;4.47;3.43;;;8.70;99.90;;;;;;2071814;28;20285;-69
2023/10/04 03:57:35;;;;;;;4.40;3.10;;;8.70;99.90;;;;;;2064421;28;20240;-70
2023/10/04 03:58:37;;;;;;;4.90;3.53;;;8.80;99.90;;;;;;2064091;28;20244;-69
2023/10/04 03:59:37;;;;;;;3.53;2.70;;;8.80;99.90;;;;;;2079542;28;20708;-70
2023/10/04 04:00:39;;;;;;;3.10;2.60;;;8.80;99.90;;;;;;2080169;28;20243;-70
2023/10/04 04:01:40;;;;;;;3.30;3.00;;;8.80;99.90;;;;;;2078064;28;20238;-70
2023/10/04 04:02:41;;;;;;;4.00;2.93;;;8.70;99.90;;;;;;2080172;28;20239;-69
2023/10/04 04:03:43;;;;;;;3.60;2.63;;;8.60;99.90;;;;;;2072763;28;20324;-70
2023/10/04 04:04:44;;;;;;;4.68;3.30;;;8.50;99.90;;;;;;2072041;28;20292;-69
2023/10/04 04:05:45;;;;;;;4.07;3.20;;;8.50;99.90;;;;;;2080488;28;20354;-70
2023/10/04 04:06:47;;;;;;;5.43;2.90;;;8.40;99.90;;;;;;2081251;28;20228;-70
2023/10/04 04:07:48;;;;;;;5.65;3.13;;;8.40;99.90;;;;;;2080432;28;20230;-70
2023/10/04 04:08:49;;;;;;;3.37;2.87;;;8.40;99.90;;;;;;2077875;28;20236;-70
2023/10/04 04:09:50;;;;;;;3.72;2.40;;;8.30;99.90;;;;;;2077504;28;20231;-70
2023/10/04 04:10:51;;;;;;;7.03;3.37;;;8.30;99.90;;;;;;2080270;28;20599;-70
2023/10/04 04:11:52;;;;;;;4.18;3.05;;;8.40;99.90;;;;;;2080572;28;20242;-70
2023/10/04 04:12:55;;;;;;;6.88;3.35;;;8.40;99.90;;;;;;2078915;28;20235;-70
2023/10/04 04:13:57;;;;;;;5.38;3.10;;;8.50;99.90;;;;;;2078778;28;20238;-70
2023/10/04 04:14:58;;;;;;;4.70;3.25;;;8.50;99.90;;;;;;2083781;28;20287;-70
2023/10/04 04:15:59;;;;;;;4.93;3.22;;;8.50;99.90;;;;;;2077182;28;20229;-70
2023/10/04 04:17:00;;;;;;;3.80;2.63;;;8.60;99.90;;;;;;2079917;28;20235;-70
2023/10/04 04:18:06;;;;;;;4.80;3.42;;;8.60;99.90;;;;;;2080135;28;20210;-71
2023/10/04 04:19:07;;;;;;;4.47;3.47;;;8.60;99.90;;;;;;2072167;28;20187;-71
2023/10/04 04:20:16;;;;;;;8.00;3.47;;;8.60;99.90;;;;;;2076075;28;20186;-71
2023/10/04 04:21:17;;;;;;;4.63;3.10;;;8.60;99.90;;;;;;2081147;28;20183;-71
2023/10/04 04:22:23;;;;;;;5.13;3.40;;;8.50;99.90;;;;;;2079775;28;20686;-70
2023/10/04 04:23:25;;;;;;;4.97;3.40;;;8.40;99.90;;;;;;2079896;28;20220;-71
2023/10/04 04:24:25;;;;;;;4.90;3.17;;;8.30;99.90;;;;;;2078079;28;20625;-71
2023/10/04 04:25:28;;;;;;;3.87;3.03;;;8.30;99.90;;;;;;2080115;28;20276;-71
2023/10/04 04:26:29;;;;;;;3.75;2.65;;;8.40;99.90;;;;;;2072061;28;20230;-71
2023/10/04 04:27:30;;;;;;;5.73;2.80;;;8.40;99.90;;;;;;2071544;28;20229;-71
2023/10/04 04:28:30;;;;;;;4.43;3.10;;;8.40;99.90;;;;;;2071056;28;20408;-71
2023/10/04 04:29:31;;;;;;;6.03;3.10;;;8.30;99.90;;;;;;2078611;28;20747;-70
2023/10/04 04:30:32;;;;;;;3.47;3.07;;;8.30;99.90;;;;;;2081078;28;20599;-70
2023/10/04 04:31:34;;;;;;;4.32;2.90;;;8.30;99.90;;;;;;2080132;28;20232;-70
2023/10/04 04:32:34;;;;;;;4.95;2.90;;;8.30;99.90;;;;;;2080073;28;20700;-70
2023/10/04 04:33:35;;;;;;;4.40;2.90;;;8.10;99.90;;;;;;2079896;28;20229;-70
2023/10/04 04:34:38;;;;;;;2.90;2.60;;;7.90;99.90;;;;;;2071856;28;20257;-70
2023/10/04 04:36:42;;;;;;;4.03;3.03;;;7.90;99.90;;;;;;2079346;28;20256;-70
2023/10/04 04:37:44;;;;;;;3.40;3.10;;;7.90;99.90;;;;;;2071994;28;20292;-70
2023/10/04 04:38:47;;;;;;;3.13;2.70;;;7.90;99.90;;;;;;2080562;28;20284;-74
2023/10/04 04:39:47;;;;;;;4.90;3.47;;;8.00;99.90;;;;;;2073597;28;20229;-72
2023/10/04 04:40:52;;;;;;;4.90;3.03;;;8.00;99.90;;;;;;2073725;28;20230;-70
2023/10/04 04:41:53;;;;;;;6.55;2.65;;;8.00;99.90;;;;;;2062430;28;20231;-70
2023/10/04 04:43:01;;;;;;;5.00;3.13;;;8.10;99.90;;;;;;2057306;28;20227;-71
2023/10/04 04:44:07;;;;;;;3.67;2.75;;;8.10;99.90;;;;;;2069783;28;20268;-71
2023/10/04 04:45:25;;;;;;;3.08;2.75;;;8.10;99.90;;;;;;2063533;28;20660;-71
2023/10/04 04:46:26;;;;;;;3.38;2.67;;;8.00;99.90;;;;;;2079975;28;20230;-71
2023/10/04 04:47:26;;;;;;;4.40;3.37;;;8.10;99.90;;;;;;2078765;28;20229;-71
2023/10/04 04:48:31;;;;;;;4.07;3.23;;;8.10;99.90;;;;;;2079572;28;20221;-71
2023/10/04 04:49:32;;;;;;;3.60;3.10;;;8.10;99.90;;;;;;2071780;28;20226;-70
2023/10/04 04:50:35;;;;;;;4.03;3.15;;;8.10;99.90;;;;;;2070837;28;20233;-70
2023/10/04 04:51:35;;;;;;;6.20;3.10;;;8.10;99.90;;;;;;2070996;28;20231;-70
2023/10/04 04:52:36;;;;;;;3.83;3.10;;;8.20;99.90;;;;;;2078879;28;20230;-71
2023/10/04 04:53:43;;;;;;;4.40;2.87;;;8.30;99.90;;;;;;2079665;28;20267;-70
2023/10/04 04:54:44;;;;;;;5.13;3.33;;;8.30;99.90;;;;;;2079971;28;20782;-70
2023/10/04 04:55:45;;;;;;;4.53;3.57;;;8.30;99.90;;;;;;2071798;28;20276;-71
2023/10/04 04:56:46;;;;;;;4.00;3.60;;;8.20;99.90;;;;;;2079290;28;20622;-70
2023/10/04 04:57:46;;;;;;;8.50;3.33;;;8.30;99.90;;;;;;2079797;28;20242;-70
2023/10/04 04:58:47;;;;;;;4.17;3.23;;;8.30;99.90;;;;;;2079797;28;20728;-70
2023/10/04 04:59:55;;;;;;;3.15;2.83;;;8.30;99.90;;;;;;2072012;28;20249;-70
2023/10/04 05:01:00;;;;;;;4.80;3.38;;;8.30;99.90;;;;;;2079959;28;20616;-71
2023/10/04 05:02:01;;;;;;;5.55;3.28;;;8.40;99.90;;;;;;2079259;28;20752;-72
2023/10/04 05:03:04;;;;;;;4.43;3.53;;;8.40;99.90;;;;;;2071158;28;20229;-71
2023/10/04 05:04:06;;;;;;;3.78;2.97;;;8.50;99.90;;;;;;2062666;28;20581;-71
2023/10/04 05:05:08;;;;;;;4.85;2.50;;;8.60;99.90;;;;;;2072025;28;20224;-71
2023/10/04 05:06:25;;;;;;;3.58;3.03;;;8.60;99.90;;;;;;2070843;28;20185;-69
2023/10/04 05:07:27;;;;;;;2.88;2.40;;;8.50;99.90;;;;;;2078265;28;20277;-70
2023/10/04 05:08:27;;;;;;;3.60;2.60;;;8.40;99.90;;;;;;2079995;28;20284;-71
2023/10/04 05:09:28;;;;;;;3.40;2.57;;;8.40;99.90;;;;;;2071640;28;20236;-71
2023/10/04 05:10:34;;;;;;;5.50;2.50;;;8.40;99.90;;;;;;2069262;28;20229;-71
2023/10/04 05:11:36;;;;;;;3.95;2.70;;;8.50;99.90;;;;;;2072490;28;20225;-71
2023/10/04 05:12:37;;;;;;;3.33;2.50;;;8.50;99.90;;;;;;2071748;28;20659;-70
2023/10/04 05:13:39;;;;;;;4.00;2.90;;;8.50;99.90;;;;;;2070112;28;20223;-70
2023/10/04 05:14:40;;;;;;;3.70;2.78;;;8.60;99.90;;;;;;2071631;28;20254;-70
2023/10/04 05:15:42;;;;;;;4.13;2.77;;;8.60;99.90;;;;;;2079035;28;20228;-70
2023/10/04 05:16:44;;;;;;;3.42;2.67;;;8.60;99.90;;;;;;2079851;28;20230;-71
2023/10/04 05:17:44;;;;;;;3.00;2.65;;;8.70;99.90;;;;;;2071611;28;20238;-70
2023/10/04 05:18:45;;;;;;;4.30;2.87;;;8.70;99.90;;;;;;2071688;28;20335;-69
2023/10/04 05:19:46;;;;;;;3.03;2.50;;;8.70;99.90;;;;;;2071445;28;20277;-69
2023/10/04 05:20:50;;;;;;;4.30;2.77;;;8.70;99.90;;;;;;2075037;28;20240;-69
2023/10/04 05:21:51;;;;;;;4.25;2.58;;;8.60;99.90;;;;;;2074325;28;20291;-69
2023/10/04 05:22:53;;;;;;;3.30;2.63;;;8.60;99.90;;;;;;2077064;28;20312;-69
2023/10/04 05:23:56;;;;;;;4.63;2.90;;;8.60;99.90;;;;;;2076834;28;20222;-69
2023/10/04 05:24:56;;;;;;;5.82;3.28;;;8.70;99.90;;;;;;2074754;28;20706;-70
2023/10/04 05:25:59;;;;;;;3.60;3.20;;;8.80;99.90;;;;;;2074147;28;20296;-69
2023/10/04 05:27:02;;;;;;;3.47;3.13;;;8.80;99.90;;;;;;2075785;28;20226;-69
2023/10/04 05:28:09;;;;;;;5.05;4.55;;;9.00;99.90;;;;;;2074730;28;20226;-70
2023/10/04 05:29:10;;;;;;;5.72;4.10;;;9.00;99.90;;;;;;2069061;28;20181;-70